Time;durP1;ratioP1;P1;durP2;ratioP2;P2;SDS_P1;SDS_P2;PMS_P1;PMS_P2;Temp;Humidity;BMP_temperature;BMP_pressure;BME280_temperature;BME280_humidity;BME280_pressure;Samples;Min_cycle;Max_cycle;Signal;HPM_P1;HPM_P2
2021/05/26 00:00:02;;;;;;;2.85;1.10;;;11.80;99.90;;;;;;5113494;28;20114;-76
2021/05/26 00:02:28;;;;;;;4.97;1.25;;;11.80;99.90;;;;;;5109875;28;20072;-75
2021/05/26 00:04:53;;;;;;;11.48;2.33;;;11.70;99.90;;;;;;5100785;28;20036;-75
2021/05/26 00:07:19;;;;;;;10.52;1.63;;;11.70;99.90;;;;;;5112397;28;20096;-75
2021/05/26 00:09:45;;;;;;;6.45;1.58;;;11.70;99.90;;;;;;5107959;28;20028;-75
2021/05/26 00:12:12;;;;;;;4.32;1.40;;;11.60;99.90;;;;;;5099491;28;20028;-75
2021/05/26 00:14:38;;;;;;;6.70;1.20;;;11.60;99.90;;;;;;5112828;28;20024;-75
2021/05/26 00:17:04;;;;;;;3.78;1.15;;;11.50;99.90;;;;;;5094629;28;20075;-75
2021/05/26 00:19:31;;;;;;;3.30;1.15;;;11.50;99.90;;;;;;5102034;28;20068;-75
2021/05/26 00:21:57;;;;;;;5.78;1.50;;;11.50;99.90;;;;;;5101866;28;20047;-75
2021/05/26 00:24:22;;;;;;;5.03;1.73;;;11.50;99.90;;;;;;5092948;28;20033;-75
2021/05/26 00:26:48;;;;;;;5.22;1.40;;;11.50;99.90;;;;;;5092753;28;20036;-75
2021/05/26 00:29:14;;;;;;;4.13;1.70;;;11.40;99.90;;;;;;5092464;28;20035;-75
2021/05/26 00:31:40;;;;;;;3.65;2.08;;;11.20;99.90;;;;;;5092546;28;20028;-75
2021/05/26 00:34:07;;;;;;;7.25;1.45;;;10.80;99.90;;;;;;5092298;28;20028;-76
2021/05/26 00:36:33;;;;;;;3.50;1.35;;;10.70;99.90;;;;;;5092827;28;20028;-75
2021/05/26 00:38:59;;;;;;;4.40;1.00;;;10.50;99.90;;;;;;5092709;28;20034;-75
2021/05/26 00:41:28;;;;;;;5.82;1.80;;;10.50;99.90;;;;;;5092767;28;20032;-75
2021/05/26 00:43:55;;;;;;;6.97;1.70;;;10.50;99.90;;;;;;5092740;28;20024;-75
2021/05/26 00:46:20;;;;;;;9.60;2.50;;;10.50;99.90;;;;;;5105006;28;20114;-75
2021/05/26 00:48:46;;;;;;;10.73;1.55;;;10.50;99.90;;;;;;5109685;28;20047;-76
2021/05/26 00:51:12;;;;;;;8.38;1.27;;;10.60;99.90;;;;;;5091359;28;20028;-75
2021/05/26 00:53:38;;;;;;;5.78;1.17;;;10.40;99.90;;;;;;5092520;28;20034;-75
2021/05/26 00:56:04;;;;;;;10.10;2.15;;;10.20;99.90;;;;;;5094278;28;20120;-76
2021/05/26 00:58:30;;;;;;;8.27;1.67;;;10.30;99.90;;;;;;5112955;28;20042;-76
2021/05/26 01:00:56;;;;;;;6.47;1.38;;;10.30;99.90;;;;;;5113241;28;20035;-76
2021/05/26 01:03:22;;;;;;;6.32;1.33;;;10.30;99.90;;;;;;5100124;28;20058;-75
2021/05/26 01:05:48;;;;;;;4.75;1.40;;;10.10;99.90;;;;;;5097947;28;20028;-75
2021/05/26 01:08:14;;;;;;;4.22;1.02;;;10.10;99.90;;;;;;5105872;28;20020;-75
2021/05/26 01:10:40;;;;;;;4.95;1.30;;;10.10;99.90;;;;;;5095870;28;20028;-75
2021/05/26 01:13:07;;;;;;;6.55;1.40;;;10.20;99.90;;;;;;5095733;28;20027;-76
2021/05/26 01:15:33;;;;;;;6.07;1.98;;;10.10;99.90;;;;;;5095745;28;20031;-75
2021/05/26 01:18:18;;;;;;;5.65;2.13;;;10.20;99.90;;;;;;5112285;28;20050;-75
2021/05/26 01:20:43;;;;;;;4.05;1.40;;;10.10;99.90;;;;;;5102659;28;20031;-75
2021/05/26 01:23:09;;;;;;;4.90;2.22;;;10.20;99.90;;;;;;5104521;28;20027;-75
2021/05/26 01:25:35;;;;;;;4.32;2.15;;;10.30;99.90;;;;;;5116248;28;20023;-75
2021/05/26 01:28:01;;;;;;;6.78;1.98;;;10.30;99.90;;;;;;5115837;28;20403;-76
2021/05/26 01:30:27;;;;;;;5.68;1.67;;;10.30;99.90;;;;;;5116390;28;20552;-76
2021/05/26 01:32:53;;;;;;;5.53;1.90;;;10.30;99.90;;;;;;5106163;28;20040;-75
2021/05/26 01:35:19;;;;;;;2.58;0.82;;;10.40;99.90;;;;;;5106158;28;20428;-75
2021/05/26 01:37:47;;;;;;;5.90;1.90;;;10.30;99.90;;;;;;5116212;28;20371;-75
2021/05/26 01:40:16;;;;;;;5.18;1.63;;;10.30;99.90;;;;;;5110757;28;20027;-75
2021/05/26 01:42:42;;;;;;;4.43;1.60;;;10.40;99.90;;;;;;5112473;28;20103;-75
2021/05/26 01:45:10;;;;;;;4.93;2.00;;;10.40;99.90;;;;;;5095479;28;20107;-75
2021/05/26 01:47:36;;;;;;;11.63;1.42;;;10.40;99.90;;;;;;5097273;28;20023;-75
2021/05/26 01:50:03;;;;;;;6.68;1.90;;;10.40;99.90;;;;;;5115386;28;20547;-76
2021/05/26 01:52:28;;;;;;;4.18;1.52;;;10.50;99.90;;;;;;5113735;28;20444;-75
2021/05/26 01:54:54;;;;;;;7.00;1.25;;;10.50;99.90;;;;;;5104757;28;20059;-75
2021/05/26 01:57:20;;;;;;;5.40;2.08;;;10.50;99.90;;;;;;5105319;28;20055;-76
2021/05/26 01:59:46;;;;;;;5.05;2.08;;;10.50;99.90;;;;;;5114809;28;20019;-75
2021/05/26 02:02:12;;;;;;;5.95;1.90;;;10.60;99.90;;;;;;5113849;28;20036;-75
2021/05/26 02:04:38;;;;;;;5.22;1.88;;;10.60;99.90;;;;;;5105974;28;20111;-76
2021/05/26 02:07:12;;;;;;;5.80;1.98;;;10.60;99.90;;;;;;5095158;28;20050;-75
2021/05/26 02:09:41;;;;;;;4.78;1.25;;;10.60;99.90;;;;;;5094580;28;20058;-76
2021/05/26 02:12:22;;;;;;;3.45;1.63;;;10.50;99.90;;;;;;5094006;28;20028;-76
2021/05/26 02:14:55;;;;;;;8.35;2.22;;;10.60;99.90;;;;;;5094913;28;20073;-75
2021/05/26 02:17:22;;;;;;;4.72;1.67;;;10.50;99.90;;;;;;5094225;28;20028;-76
2021/05/26 02:19:48;;;;;;;6.63;1.88;;;10.60;99.90;;;;;;5115282;28;20028;-75
2021/05/26 02:22:15;;;;;;;5.40;2.00;;;10.60;99.90;;;;;;5114386;28;20427;-75
2021/05/26 02:24:41;;;;;;;5.97;1.60;;;10.60;99.90;;;;;;5115334;28;20026;-75
2021/05/26 02:27:08;;;;;;;8.15;1.70;;;10.60;99.90;;;;;;5095529;28;20068;-75
2021/05/26 02:29:33;;;;;;;7.07;1.60;;;10.50;99.90;;;;;;5093216;28;20028;-75
2021/05/26 02:31:59;;;;;;;6.20;1.10;;;10.50;99.90;;;;;;5094118;28;20088;-76
2021/05/26 02:34:25;;;;;;;7.15;1.55;;;10.40;99.90;;;;;;5093053;28;20421;-75
2021/05/26 02:36:51;;;;;;;6.82;1.95;;;10.40;99.90;;;;;;5095643;28;20028;-75
2021/05/26 02:39:17;;;;;;;4.97;1.38;;;10.30;99.90;;;;;;5103423;28;20032;-76
2021/05/26 02:41:43;;;;;;;6.10;1.17;;;10.30;99.90;;;;;;5094566;28;20667;-75
2021/05/26 02:44:10;;;;;;;6.00;1.42;;;10.40;99.90;;;;;;5100747;28;20028;-75
2021/05/26 02:46:36;;;;;;;2.33;1.20;;;10.40;99.90;;;;;;5109822;27;20036;-75
2021/05/26 02:49:04;;;;;;;6.45;1.60;;;10.40;99.90;;;;;;5094414;28;20095;-75
2021/05/26 02:51:30;;;;;;;2.80;1.42;;;10.30;99.90;;;;;;5100820;28;20491;-75
2021/05/26 02:53:56;;;;;;;4.05;2.15;;;10.10;99.90;;;;;;5112368;28;20028;-75
2021/05/26 02:56:21;;;;;;;4.63;1.30;;;10.10;99.90;;;;;;5095992;28;20042;-75
2021/05/26 02:58:47;;;;;;;5.82;1.40;;;10.00;99.90;;;;;;5108121;28;20032;-75
2021/05/26 03:01:13;;;;;;;8.90;1.45;;;9.80;99.90;;;;;;5094833;28;20032;-75
2021/05/26 03:03:39;;;;;;;4.93;1.20;;;9.70;99.90;;;;;;5114599;28;20102;-76
2021/05/26 03:06:05;;;;;;;4.78;1.52;;;9.80;99.90;;;;;;5093363;28;20036;-76
2021/05/26 03:08:30;;;;;;;3.33;1.30;;;9.90;99.90;;;;;;5096009;28;20012;-75
2021/05/26 03:10:58;;;;;;;2.75;1.25;;;9.90;99.90;;;;;;5094205;28;20048;-75
2021/05/26 03:13:25;;;;;;;8.38;1.75;;;9.90;99.90;;;;;;5094762;28;20032;-75
2021/05/26 03:15:52;;;;;;;4.85;1.60;;;9.90;99.90;;;;;;5099576;28;20399;-75
2021/05/26 03:18:22;;;;;;;2.88;1.40;;;10.00;99.90;;;;;;5093944;28;20032;-75
2021/05/26 03:20:49;;;;;;;6.43;1.80;;;10.00;99.90;;;;;;5093837;28;20024;-76
2021/05/26 03:23:16;;;;;;;5.60;1.52;;;10.00;99.90;;;;;;5093260;28;20596;-75
2021/05/26 03:25:46;;;;;;;6.85;1.92;;;9.90;99.90;;;;;;5093388;28;20036;-75
2021/05/26 03:28:11;;;;;;;;;;;9.90;99.90;;;;;;5101765;28;20023;-75
2021/05/26 03:30:37;;;;;;;10.80;1.73;;;9.80;99.90;;;;;;5112731;28;19904;-76
2021/05/26 03:33:06;;;;;;;6.57;1.63;;;9.80;99.90;;;;;;5107380;28;20127;-75
2021/05/26 03:35:33;;;;;;;10.93;2.00;;;9.70;99.90;;;;;;5093729;28;20097;-75
2021/05/26 03:37:59;;;;;;;3.78;1.90;;;9.60;99.90;;;;;;5096133;28;20088;-75
2021/05/26 03:40:24;;;;;;;11.77;2.22;;;9.80;99.90;;;;;;5099336;28;20036;-75
2021/05/26 03:42:50;;;;;;;8.35;2.05;;;9.90;99.90;;;;;;5103992;28;20024;-75
2021/05/26 03:45:16;;;;;;;7.35;2.05;;;10.00;99.90;;;;;;5102647;27;20039;-75
2021/05/26 03:47:42;;;;;;;10.18;2.38;;;10.00;99.90;;;;;;5111648;28;20041;-76
2021/05/26 03:50:13;;;;;;;6.18;1.70;;;10.10;99.90;;;;;;5107611;28;20487;-76
2021/05/26 03:52:44;;;;;;;9.05;2.03;;;10.10;99.90;;;;;;5112769;28;20055;-75
2021/05/26 03:55:12;;;;;;;5.13;2.28;;;10.10;99.90;;;;;;5108025;28;20023;-75
2021/05/26 03:57:39;;;;;;;8.40;2.20;;;10.10;99.90;;;;;;5112922;28;20437;-75
2021/05/26 04:00:08;;;;;;;5.63;2.30;;;10.10;99.90;;;;;;5094302;28;20027;-76
2021/05/26 04:02:35;;;;;;;3.28;1.50;;;10.00;99.90;;;;;;5102696;28;20035;-75
2021/05/26 04:05:00;;;;;;;9.90;2.45;;;10.00;99.90;;;;;;5110421;28;20016;-75
2021/05/26 04:07:26;;;;;;;5.35;2.17;;;10.00;99.90;;;;;;5109138;28;20022;-76
2021/05/26 04:09:52;;;;;;;6.50;2.65;;;10.00;99.90;;;;;;5109812;28;20016;-75
2021/05/26 04:12:19;;;;;;;8.93;2.08;;;9.90;99.90;;;;;;5110531;28;20099;-75
2021/05/26 04:14:45;;;;;;;8.10;2.20;;;9.90;99.90;;;;;;5110094;28;20035;-76
2021/05/26 04:17:11;;;;;;;5.53;1.88;;;9.80;99.90;;;;;;5111099;28;20028;-76
2021/05/26 04:19:37;;;;;;;8.75;2.17;;;9.90;99.90;;;;;;5106710;28;20564;-75
2021/05/26 04:22:03;;;;;;;10.95;2.25;;;9.90;99.90;;;;;;5107426;28;20492;-75
2021/05/26 04:24:28;;;;;;;7.13;2.10;;;9.90;99.90;;;;;;5106645;28;20023;-75
2021/05/26 04:26:54;;;;;;;9.35;3.45;;;10.00;99.90;;;;;;5110181;28;20039;-75
2021/05/26 04:29:20;;;;;;;12.43;2.33;;;10.10;99.90;;;;;;5110795;28;20039;-75
2021/05/26 04:31:46;;;;;;;6.80;1.88;;;10.10;99.90;;;;;;5109736;28;20020;-76
2021/05/26 04:34:16;;;;;;;7.38;3.00;;;10.00;99.90;;;;;;5110499;28;20118;-75
2021/05/26 04:36:41;;;;;;;6.78;1.98;;;10.10;99.90;;;;;;5112462;28;20039;-76
2021/05/26 04:39:08;;;;;;;7.60;2.78;;;10.10;99.90;;;;;;5113636;28;20035;-75
2021/05/26 04:41:34;;;;;;;5.10;2.50;;;10.20;99.90;;;;;;5113485;28;20406;-75
2021/05/26 04:44:00;;;;;;;5.97;2.20;;;10.30;99.90;;;;;;5114693;28;20019;-75
2021/05/26 04:46:26;;;;;;;5.88;2.67;;;10.30;99.90;;;;;;5114559;28;20020;-76
2021/05/26 04:48:51;;;;;;;4.40;2.03;;;10.30;99.90;;;;;;5114002;28;20043;-75
2021/05/26 04:51:17;;;;;;;8.05;2.47;;;10.30;99.90;;;;;;5110911;28;20028;-76
2021/05/26 04:53:43;;;;;;;7.13;2.30;;;10.30;99.90;;;;;;5110252;28;20118;-75
2021/05/26 04:56:09;;;;;;;9.32;2.90;;;10.40;99.90;;;;;;5107426;28;20522;-75
2021/05/26 04:58:34;;;;;;;7.53;3.10;;;10.40;99.90;;;;;;5112436;28;20511;-75
2021/05/26 05:01:00;;;;;;;7.55;2.47;;;10.40;99.90;;;;;;5110248;28;20118;-75
2021/05/26 05:03:26;;;;;;;10.20;3.08;;;10.40;99.90;;;;;;5110356;28;20044;-75
2021/05/26 05:05:52;;;;;;;9.15;2.72;;;10.40;99.90;;;;;;5108437;28;20469;-75
2021/05/26 05:08:17;;;;;;;6.82;2.75;;;10.40;99.90;;;;;;5118281;27;20016;-75
2021/05/26 05:10:43;;;;;;;6.65;2.08;;;10.50;99.90;;;;;;5106502;28;20107;-75
2021/05/26 05:13:09;;;;;;;8.85;3.60;;;10.40;99.90;;;;;;5116847;27;20099;-75
2021/05/26 05:15:35;;;;;;;7.90;3.08;;;10.40;99.90;;;;;;5106352;27;20115;-75
2021/05/26 05:18:01;;;;;;;6.35;2.85;;;10.50;99.90;;;;;;5112909;27;20507;-75
2021/05/26 05:20:27;;;;;;;8.18;3.15;;;10.40;99.90;;;;;;5101576;28;20035;-75
2021/05/26 05:22:54;;;;;;;8.10;3.78;;;10.40;99.90;;;;;;5105083;28;20050;-75
2021/05/26 05:25:20;;;;;;;10.95;3.78;;;10.40;99.90;;;;;;5103869;28;20034;-75
2021/05/26 05:27:46;;;;;;;11.00;3.33;;;10.40;99.90;;;;;;5101423;27;20107;-75
2021/05/26 05:30:13;;;;;;;11.10;2.85;;;10.50;99.90;;;;;;5115092;27;20131;-75
2021/05/26 05:32:39;;;;;;;7.57;2.88;;;10.40;99.90;;;;;;5109627;28;20503;-75
2021/05/26 05:35:06;;;;;;;8.27;2.40;;;10.40;99.90;;;;;;5109434;27;20055;-75
2021/05/26 05:37:32;;;;;;;7.13;3.05;;;10.40;99.90;;;;;;5104959;28;20507;-75
2021/05/26 05:39:59;;;;;;;5.28;2.15;;;10.40;99.90;;;;;;5099828;28;20032;-75
2021/05/26 05:42:25;;;;;;;6.53;2.20;;;10.40;99.90;;;;;;5099921;28;20060;-75
2021/05/26 05:44:50;;;;;;;13.00;2.90;;;10.50;99.90;;;;;;5111621;28;20020;-75
2021/05/26 05:47:16;;;;;;;9.48;2.40;;;10.50;99.90;;;;;;5111688;27;20027;-75
2021/05/26 05:49:42;;;;;;;5.00;2.40;;;10.50;99.90;;;;;;5111779;28;20459;-75
2021/05/26 05:52:11;;;;;;;8.65;2.22;;;10.50;99.90;;;;;;5100497;28;20511;-75
2021/05/26 05:54:37;;;;;;;6.63;2.92;;;10.60;99.90;;;;;;5103359;28;20032;-75
2021/05/26 05:57:04;;;;;;;6.07;2.05;;;10.70;99.90;;;;;;5098258;28;20050;-75
2021/05/26 05:59:31;;;;;;;8.25;2.60;;;10.70;99.90;;;;;;5100341;28;20436;-75
2021/05/26 06:01:56;;;;;;;8.63;2.60;;;10.60;99.90;;;;;;5096911;28;20488;-76
2021/05/26 06:04:22;;;;;;;9.23;3.22;;;10.60;99.90;;;;;;5106982;27;20019;-78
2021/05/26 06:06:48;;;;;;;10.60;2.90;;;10.60;99.90;;;;;;5111403;27;20394;-76
2021/05/26 06:09:14;;;;;;;10.43;3.30;;;10.70;99.90;;;;;;5121241;27;20416;-75
2021/05/26 06:11:40;;;;;;;15.27;3.38;;;10.70;99.90;;;;;;5123306;27;20111;-76
2021/05/26 06:14:07;;;;;;;5.18;2.53;;;10.70;99.90;;;;;;5128757;27;20027;-75
2021/05/26 06:16:37;;;;;;;7.97;2.72;;;10.80;99.90;;;;;;5108955;27;20043;-75
2021/05/26 06:19:04;;;;;;;11.48;3.42;;;10.80;99.90;;;;;;5109239;27;20039;-75
2021/05/26 06:21:31;;;;;;;9.30;2.75;;;10.80;99.90;;;;;;5108076;28;20031;-76
2021/05/26 06:23:57;;;;;;;8.68;3.45;;;11.00;99.90;;;;;;5109523;28;20051;-76
2021/05/26 06:26:24;;;;;;;12.30;3.25;;;11.10;99.90;;;;;;5103532;28;20081;-76
2021/05/26 06:28:50;;;;;;;10.13;4.20;;;11.20;99.90;;;;;;5109841;28;20483;-76
2021/05/26 06:31:16;;;;;;;10.82;3.38;;;11.30;99.90;;;;;;5103595;28;20027;-76
2021/05/26 06:33:45;;;;;;;12.13;3.75;;;11.40;99.90;;;;;;5105165;28;20047;-75
2021/05/26 06:36:11;;;;;;;5.00;3.38;;;11.50;97.80;;;;;;5104700;28;20035;-76
2021/05/26 06:38:37;;;;;;;10.77;2.83;;;11.60;98.30;;;;;;5109911;28;20376;-75
2021/05/26 06:41:03;;;;;;;11.13;3.53;;;11.60;96.70;;;;;;5111144;28;20031;-76
2021/05/26 06:43:30;;;;;;;9.23;3.13;;;11.50;96.70;;;;;;5099832;28;20081;-76
2021/05/26 06:45:55;;;;;;;14.15;3.35;;;11.60;96.90;;;;;;5093712;28;20034;-76
2021/05/26 06:48:22;;;;;;;14.65;3.80;;;11.50;96.80;;;;;;5094040;28;20023;-75
2021/05/26 06:50:47;;;;;;;24.48;4.70;;;11.50;96.00;;;;;;5093883;28;20445;-76
2021/05/26 06:53:13;;;;;;;13.80;4.28;;;11.50;96.10;;;;;;5093388;28;20099;-76
2021/05/26 06:55:39;;;;;;;9.82;3.58;;;11.60;96.00;;;;;;5093648;28;20474;-76
2021/05/26 06:58:05;;;;;;;14.55;4.25;;;11.60;95.50;;;;;;5109726;28;20034;-76
2021/05/26 07:00:31;;;;;;;21.52;4.82;;;11.70;95.60;;;;;;5113803;28;20076;-76
2021/05/26 07:02:57;;;;;;;18.25;5.72;;;11.80;96.00;;;;;;5113945;28;20027;-76
2021/05/26 07:05:23;;;;;;;11.30;4.10;;;11.80;93.40;;;;;;5113676;28;20046;-76
2021/05/26 07:07:49;;;;;;;14.15;4.38;;;11.80;94.70;;;;;;5113338;28;20077;-76
2021/05/26 07:10:16;;;;;;;15.05;4.25;;;12.00;93.80;;;;;;5113532;28;20027;-76
2021/05/26 07:12:42;;;;;;;15.00;3.97;;;12.20;93.90;;;;;;5113839;28;20030;-76
2021/05/26 07:15:09;;;;;;;11.82;4.47;;;12.30;93.00;;;;;;5113840;28;20065;-76
2021/05/26 07:17:34;;;;;;;10.48;4.10;;;12.40;93.50;;;;;;5113469;28;20035;-76
2021/05/26 07:20:03;;;;;;;15.85;3.83;;;12.60;93.50;;;;;;5093358;28;20016;-76
2021/05/26 07:22:29;;;;;;;14.63;4.60;;;12.70;93.20;;;;;;5092663;28;20032;-76
2021/05/26 07:24:54;;;;;;;9.82;4.28;;;12.80;92.40;;;;;;5092972;28;20039;-76
2021/05/26 07:27:20;;;;;;;9.75;4.05;;;12.90;92.80;;;;;;5111219;28;20529;-76
2021/05/26 07:29:46;;;;;;;10.57;3.88;;;13.00;91.80;;;;;;5105233;28;20023;-76
2021/05/26 07:32:12;;;;;;;11.88;3.67;;;13.20;92.50;;;;;;5092845;28;20059;-76
2021/05/26 07:34:37;;;;;;;17.45;3.70;;;13.10;90.80;;;;;;5092687;28;20052;-76
2021/05/26 07:37:03;;;;;;;13.68;4.35;;;13.20;90.90;;;;;;5093309;28;20566;-76
2021/05/26 07:39:35;;;;;;;27.90;5.10;;;13.30;91.00;;;;;;5092958;28;20055;-76
2021/05/26 07:42:05;;;;;;;14.52;5.40;;;13.30;90.00;;;;;;5093022;28;20055;-76
2021/05/26 07:44:31;;;;;;;16.30;4.05;;;13.50;90.90;;;;;;5092890;28;20085;-76
2021/05/26 07:46:57;;;;;;;17.13;4.90;;;13.70;90.70;;;;;;5092640;28;20445;-76
2021/05/26 07:49:23;;;;;;;15.32;4.40;;;13.90;90.10;;;;;;5092384;28;20028;-76
2021/05/26 07:51:54;;;;;;;13.13;4.70;;;14.00;90.10;;;;;;5092700;28;20028;-76
2021/05/26 07:54:22;;;;;;;12.40;3.95;;;14.00;89.40;;;;;;5092719;28;20056;-76
2021/05/26 07:56:48;;;;;;;8.68;3.47;;;14.20;87.50;;;;;;5092687;28;20058;-76
2021/05/26 07:59:13;;;;;;;15.38;3.53;;;14.50;85.70;;;;;;5112159;28;20438;-76
2021/05/26 08:01:39;;;;;;;15.93;4.30;;;15.20;82.00;;;;;;5112427;28;20031;-77
2021/05/26 08:04:05;;;;;;;9.90;3.55;;;15.30;79.80;;;;;;5112664;28;20034;-77
2021/05/26 08:06:31;;;;;;;9.18;3.25;;;15.50;82.60;;;;;;5112834;28;20024;-77
2021/05/26 08:08:57;;;;;;;9.52;3.20;;;15.50;81.20;;;;;;5112871;28;20024;-76
2021/05/26 08:11:24;;;;;;;11.77;3.83;;;16.00;80.80;;;;;;5110538;28;20019;-77
2021/05/26 08:13:49;;;;;;;13.88;3.97;;;16.30;80.30;;;;;;5112852;28;20023;-77
2021/05/26 08:16:15;;;;;;;7.95;4.30;;;16.30;79.00;;;;;;5112793;28;20102;-76
2021/05/26 08:18:41;;;;;;;13.65;3.50;;;16.30;80.80;;;;;;5112174;28;20089;-77
2021/05/26 08:21:08;;;;;;;6.28;3.33;;;16.20;80.10;;;;;;5112988;28;20035;-77
2021/05/26 08:23:34;;;;;;;15.50;3.55;;;15.90;80.70;;;;;;5112523;28;20102;-77
2021/05/26 08:25:59;;;;;;;12.48;4.82;;;15.40;81.50;;;;;;5112667;28;20102;-77
2021/05/26 08:28:26;;;;;;;13.18;3.47;;;15.50;82.00;;;;;;5112736;28;20368;-77
2021/05/26 08:30:53;;;;;;;8.80;3.28;;;15.90;82.60;;;;;;5112569;28;20479;-77
2021/05/26 08:33:19;;;;;;;11.18;3.72;;;16.00;82.10;;;;;;5112012;28;20047;-77
2021/05/26 08:35:45;;;;;;;8.65;3.10;;;15.90;78.10;;;;;;5111203;28;20035;-77
2021/05/26 08:38:11;;;;;;;8.18;3.28;;;15.60;80.80;;;;;;5112656;28;20091;-77
2021/05/26 08:40:37;;;;;;;10.98;3.20;;;15.80;81.50;;;;;;5112442;28;20034;-77
2021/05/26 08:43:03;;;;;;;7.40;3.85;;;16.20;79.80;;;;;;5112819;28;20099;-77
2021/05/26 08:45:29;;;;;;;11.48;3.85;;;16.30;83.60;;;;;;5112410;28;20028;-76
2021/05/26 08:47:59;;;;;;;8.07;3.72;;;16.50;81.20;;;;;;5112041;28;20099;-76
2021/05/26 08:50:25;;;;;;;12.48;3.50;;;16.80;81.40;;;;;;5112510;27;20046;-77
2021/05/26 08:52:50;;;;;;;9.75;4.15;;;16.70;81.90;;;;;;5112508;28;20048;-77
2021/05/26 08:55:17;;;;;;;9.48;2.92;;;16.40;79.50;;;;;;5112535;28;20030;-77
2021/05/26 08:57:43;;;;;;;17.92;3.38;;;16.40;78.80;;;;;;5112116;28;20107;-77
2021/05/26 09:00:10;;;;;;;11.00;3.45;;;16.60;80.60;;;;;;5112265;28;20054;-77
2021/05/26 09:02:36;;;;;;;7.25;2.85;;;16.70;79.90;;;;;;5112106;28;20444;-77
2021/05/26 09:05:02;;;;;;;13.45;4.28;;;16.50;76.00;;;;;;5112398;28;20102;-77
2021/05/26 09:07:34;;;;;;;14.05;3.35;;;16.70;77.90;;;;;;5111927;28;20050;-77
2021/05/26 09:10:06;;;;;;;9.15;3.88;;;17.10;79.50;;;;;;5112213;28;20023;-77
2021/05/26 09:12:39;;;;;;;13.45;3.67;;;17.50;78.10;;;;;;5112474;28;20051;-77
2021/05/26 09:15:10;;;;;;;8.20;3.47;;;17.40;77.10;;;;;;5112300;28;20031;-77
2021/05/26 09:17:36;;;;;;;8.25;3.65;;;17.60;76.40;;;;;;5111671;27;20511;-77
2021/05/26 09:20:26;;;;;;;8.02;3.47;;;17.50;74.10;;;;;;5112312;28;20062;-77
2021/05/26 09:23:13;;;;;;;9.93;3.55;;;17.30;74.20;;;;;;5114653;28;20032;-77
2021/05/26 09:25:45;;;;;;;8.70;3.15;;;17.30;78.60;;;;;;5115763;28;20097;-77
2021/05/26 09:28:20;;;;;;;7.30;3.20;;;17.50;76.70;;;;;;5115680;28;20391;-77
2021/05/26 09:30:58;;;;;;;10.57;3.90;;;17.80;76.10;;;;;;5115204;28;20022;-77
2021/05/26 09:33:28;;;;;;;11.93;3.58;;;18.10;77.80;;;;;;5115747;28;20457;-77
2021/05/26 09:36:13;;;;;;;;;;;18.60;77.60;;;;;;5115981;28;20028;-77
2021/05/26 09:38:49;;;;;;;10.20;3.85;;;18.80;75.80;;;;;;5115448;28;20458;-77
2021/05/26 09:41:24;;;;;;;14.13;3.42;;;18.70;76.60;;;;;;5115743;28;20027;-77
2021/05/26 09:43:54;;;;;;;11.80;4.18;;;19.10;78.40;;;;;;5115541;28;20020;-77
2021/05/26 09:46:23;;;;;;;7.35;3.42;;;19.70;74.50;;;;;;5115121;28;20039;-77
2021/05/26 09:49:16;;;;;;;6.70;3.80;;;19.70;71.70;;;;;;5115343;28;20517;-77
2021/05/26 09:51:43;;;;;;;15.15;3.78;;;19.40;69.40;;;;;;5115337;28;20129;-77
2021/05/26 09:54:23;;;;;;;15.93;4.03;;;19.70;73.30;;;;;;5115066;28;20197;-77
2021/05/26 09:56:52;;;;;;;;;;;20.30;74.20;;;;;;5115515;28;20395;-77
2021/05/26 09:59:20;;;;;;;10.17;3.47;;;20.40;71.00;;;;;;5115245;28;19911;-77
2021/05/26 10:01:46;;;;;;;7.82;3.45;;;20.10;69.70;;;;;;5114927;27;20555;-77
2021/05/26 10:04:12;;;;;;;10.82;4.32;;;19.90;69.50;;;;;;5115072;28;20027;-77
2021/05/26 10:06:39;;;;;;;10.02;4.03;;;20.10;67.70;;;;;;5115002;28;20024;-77
2021/05/26 10:09:09;;;;;;;9.45;3.05;;;20.70;71.10;;;;;;5115025;27;20019;-77
2021/05/26 10:11:35;;;;;;;12.23;3.95;;;24.00;64.90;;;;;;5114989;28;20031;-77
2021/05/26 10:14:09;;;;;;;11.77;4.18;;;27.70;58.00;;;;;;5114763;28;20062;-77
2021/05/26 10:16:39;;;;;;;10.65;4.10;;;29.60;54.50;;;;;;5114936;28;20165;-77
2021/05/26 10:19:05;;;;;;;;;;;29.90;51.40;;;;;;5115256;28;20430;-77
2021/05/26 10:21:32;;;;;;;16.05;5.05;;;28.90;48.90;;;;;;5114711;28;19931;-77
2021/05/26 10:24:00;;;;;;;6.05;4.38;;;29.50;49.90;;;;;;5114690;27;20027;-77
2021/05/26 10:26:48;;;;;;;11.70;4.25;;;31.20;48.80;;;;;;5114630;28;20015;-77
2021/05/26 10:29:29;;;;;;;11.57;4.93;;;30.90;47.30;;;;;;5114305;28;20028;-77
2021/05/26 10:32:02;;;;;;;7.30;3.80;;;30.40;46.00;;;;;;5114230;28;20117;-78
2021/05/26 10:34:46;;;;;;;10.32;4.88;;;31.10;45.30;;;;;;5113820;28;20065;-77
2021/05/26 10:37:24;;;;;;;10.80;3.75;;;31.10;46.10;;;;;;5114448;28;20023;-77
2021/05/26 10:39:51;;;;;;;12.40;4.15;;;31.20;46.30;;;;;;5114285;28;20039;-77
2021/05/26 10:42:34;;;;;;;10.55;4.32;;;31.30;45.60;;;;;;5114216;28;20069;-78
2021/05/26 10:45:05;;;;;;;8.65;3.63;;;31.90;48.40;;;;;;5113956;28;20035;-78
2021/05/26 10:47:37;;;;;;;10.93;5.13;;;31.80;46.40;;;;;;5114300;28;20027;-77
2021/05/26 10:50:24;;;;;;;7.82;3.55;;;31.80;47.30;;;;;;5113746;28;20526;-78
2021/05/26 10:52:56;;;;;;;21.50;4.80;;;31.30;47.80;;;;;;5114304;28;20502;-78
2021/05/26 10:55:35;;;;;;;5.88;3.72;;;32.10;46.30;;;;;;5114031;28;20108;-77
2021/05/26 10:58:18;;;;;;;6.03;3.40;;;31.10;48.80;;;;;;5113591;28;20368;-75
2021/05/26 11:00:49;;;;;;;8.23;4.03;;;31.80;47.80;;;;;;5113873;28;20023;-75
2021/05/26 11:05:56;;;;;;;10.50;4.00;;;32.80;46.00;;;;;;5114065;28;20035;-76
2021/05/26 11:11:31;;;;;;;9.35;3.30;;;32.10;46.60;;;;;;5093908;28;20058;-76
2021/05/26 11:14:10;;;;;;;18.33;4.68;;;31.00;46.00;;;;;;5088849;28;20036;-75
2021/05/26 11:17:01;;;;;;;8.32;4.00;;;31.10;48.50;;;;;;5101100;27;20047;-76
2021/05/26 11:19:30;;;;;;;8.57;4.35;;;31.90;47.40;;;;;;5110094;27;20039;-76
2021/05/26 11:22:06;;;;;;;9.20;4.07;;;31.90;47.00;;;;;;5100862;27;20110;-76
2021/05/26 11:24:35;;;;;;;7.63;3.60;;;31.30;46.10;;;;;;5106553;28;20028;-75
2021/05/26 11:27:03;;;;;;;9.45;4.00;;;31.90;44.80;;;;;;5103688;28;20016;-76
2021/05/26 11:29:34;;;;;;;11.82;4.03;;;30.90;46.70;;;;;;5101967;28;20062;-76
2021/05/26 11:32:14;;;;;;;7.35;3.55;;;30.90;46.70;;;;;;5110199;28;20023;-76
2021/05/26 11:34:42;;;;;;;9.45;4.22;;;32.90;44.80;;;;;;5107795;28;20036;-76
2021/05/26 11:37:09;;;;;;;4.93;3.25;;;33.10;43.20;;;;;;5103638;28;20372;-76
2021/05/26 11:39:36;;;;;;;6.50;4.05;;;32.70;43.50;;;;;;5104973;27;20039;-76
2021/05/26 11:42:11;;;;;;;5.90;3.88;;;32.10;44.60;;;;;;5109628;28;20442;-76
2021/05/26 11:44:41;;;;;;;7.00;3.95;;;33.10;43.90;;;;;;5100402;28;20089;-76
2021/05/26 11:47:10;;;;;;;6.47;3.90;;;33.20;45.60;;;;;;5099321;28;20016;-76
2021/05/26 11:49:39;;;;;;;10.02;3.90;;;33.20;43.20;;;;;;5105944;28;20613;-76
2021/05/26 11:52:09;;;;;;;10.95;3.65;;;32.80;43.80;;;;;;5108965;28;20027;-76
2021/05/26 11:54:52;;;;;;;7.85;4.13;;;32.50;42.30;;;;;;5107369;28;20028;-76
2021/05/26 11:57:18;;;;;;;4.80;3.42;;;32.00;44.80;;;;;;5108497;28;20024;-76
2021/05/26 11:59:52;;;;;;;6.70;3.65;;;31.50;44.00;;;;;;5111342;28;20028;-76
2021/05/26 12:02:18;;;;;;;16.52;4.13;;;30.60;44.20;;;;;;5106509;28;20020;-76
2021/05/26 12:04:44;;;;;;;8.05;3.58;;;29.40;45.90;;;;;;5109721;28;20024;-75
2021/05/26 12:07:10;;;;;;;9.80;3.70;;;28.80;47.30;;;;;;5107026;28;20160;-76
2021/05/26 12:09:36;;;;;;;8.35;3.53;;;29.20;49.70;;;;;;5092526;28;20477;-76
2021/05/26 12:12:17;;;;;;;7.95;3.42;;;29.40;47.60;;;;;;5096583;28;20016;-75
2021/05/26 12:14:45;;;;;;;4.55;3.03;;;28.80;47.20;;;;;;5103415;28;20119;-75
2021/05/26 12:17:14;;;;;;;6.95;3.60;;;28.80;47.90;;;;;;5108496;28;20503;-75
2021/05/26 12:19:40;;;;;;;9.00;3.50;;;29.20;47.70;;;;;;5110138;28;20020;-75
2021/05/26 12:22:17;;;;;;;11.88;3.83;;;29.30;47.60;;;;;;5106323;28;20494;-76
2021/05/26 12:24:54;;;;;;;7.28;3.53;;;29.00;48.40;;;;;;5109491;28;20107;-76
2021/05/26 12:27:35;;;;;;;20.25;4.03;;;28.50;48.10;;;;;;5100491;28;20027;-76
2021/05/26 12:30:19;;;;;;;5.32;3.03;;;28.30;47.80;;;;;;5104043;28;20451;-76
2021/05/26 12:32:47;;;;;;;10.30;3.58;;;28.20;48.20;;;;;;5105000;28;20063;-76
2021/05/26 12:35:18;;;;;;;8.55;3.63;;;29.10;48.40;;;;;;5098495;28;20542;-76
2021/05/26 12:37:49;;;;;;;5.68;3.30;;;30.30;47.10;;;;;;5105433;28;20038;-76
2021/05/26 12:40:31;;;;;;;5.75;3.33;;;31.30;46.20;;;;;;5103402;28;20054;-76
2021/05/26 12:42:59;;;;;;;6.10;3.63;;;31.80;44.50;;;;;;5105743;28;20110;-76
2021/05/26 12:45:30;;;;;;;5.15;2.80;;;31.70;45.40;;;;;;5105184;28;20422;-76
2021/05/26 12:48:12;;;;;;;6.55;3.55;;;31.60;44.50;;;;;;5101640;28;20541;-76
2021/05/26 12:50:45;;;;;;;6.65;3.53;;;30.80;46.00;;;;;;5101356;28;20130;-76
2021/05/26 12:53:12;;;;;;;4.88;3.33;;;30.00;44.50;;;;;;5105862;28;20031;-76
2021/05/26 12:55:38;;;;;;;10.18;3.88;;;30.40;46.80;;;;;;5099040;28;20032;-76